Time,TemperatureF,DewpointF,PressureIn,WindDirection,WindDirectionDegrees,WindSpeedMPH,WindSpeedGustMPH,Humidity,HourlyPrecipIn,Conditions,Clouds,dailyrainin,SoftwareType,DateUTC
2013-09-23 00:03:00,41.2,38.5,29.50,SSE,167,0.0,2.0,90,0.01,,,0.33,meteohub,2013-09-23 06:03:00,
2013-09-23 00:08:00,41.2,38.8,29.50,East,85,2.0,2.0,91,0.01,,,0.33,meteohub,2013-09-23 06:08:00,
2013-09-23 00:13:00,40.8,38.7,29.50,East,87,3.0,4.0,92,0.01,,,0.33,meteohub,2013-09-23 06:13:00,
2013-09-23 00:18:00,40.8,39.0,29.50,ESE,117,3.0,4.0,93,0.01,,,0.33,meteohub,2013-09-23 06:18:00,
2013-09-23 00:23:00,40.6,39.0,29.49,ESE,120,3.0,6.0,94,0.01,,,0.33,meteohub,2013-09-23 06:23:00,
2013-09-23 00:28:00,40.6,39.0,29.49,SE,145,2.0,6.0,94,0.01,,,0.33,meteohub,2013-09-23 06:28:00,
2013-09-23 00:33:00,40.5,39.2,29.48,South,170,1.0,6.0,95,0.01,,,0.33,meteohub,2013-09-23 06:33:00,
2013-09-23 00:38:00,40.5,39.2,29.48,SSE,160,2.0,4.0,95,0.01,,,0.33,meteohub,2013-09-23 06:38:00,
2013-09-23 00:43:00,40.5,39.2,29.49,SSE,150,0.0,3.0,95,0.01,,,0.33,meteohub,2013-09-23 06:43:00,
2013-09-23 00:48:00,40.5,39.2,29.49,SE,146,0.0,3.0,95,0.01,,,0.33,meteohub,2013-09-23 06:48:00,
2013-09-23 00:53:00,40.5,39.2,29.48,SE,144,0.0,3.0,95,0.01,,,0.33,meteohub,2013-09-23 06:53:00,
2013-09-23 00:58:00,40.5,39.2,29.48,SE,136,3.0,3.0,95,0.01,,,0.33,meteohub,2013-09-23 06:58:00,
2013-09-23 01:04:00,40.5,39.2,29.48,ESE,107,0.0,2.0,95,0.00,,,0.33,meteohub,2013-09-23 07:04:00,
2013-09-23 01:09:00,40.5,39.2,29.48,ESE,107,0.0,3.0,95,0.00,,,0.33,meteohub,2013-09-23 07:09:00,
2013-09-23 01:14:00,40.5,39.2,29.48,WSW,239,1.0,3.0,95,0.00,,,0.33,meteohub,2013-09-23 07:14:00,
2013-09-23 01:19:00,40.3,39.0,29.48,SE,131,4.0,4.0,95,0.00,,,0.33,meteohub,2013-09-23 07:19:00,
2013-09-23 01:24:00,40.5,39.2,29.48,SW,231,1.0,4.0,95,0.00,,,0.33,meteohub,2013-09-23 07:24:00,
2013-09-23 01:29:00,40.5,39.2,29.48,WSW,243,0.0,4.0,95,0.00,,,0.33,meteohub,2013-09-23 07:29:00,
2013-09-23 01:34:00,40.5,38.8,29.48,ESE,109,0.0,4.0,94,0.00,,,0.33,meteohub,2013-09-23 07:34:00,
2013-09-23 01:39:00,40.5,38.8,29.48,SSW,208,1.0,3.0,94,0.00,,,0.33,meteohub,2013-09-23 07:39:00,
2013-09-23 01:44:00,40.3,38.5,29.48,SSE,153,0.0,3.0,93,0.01,,,0.33,meteohub,2013-09-23 07:44:00,
2013-09-23 01:49:00,40.3,38.5,29.48,SSE,152,1.0,3.0,93,0.01,,,0.34,meteohub,2013-09-23 07:49:00,
2013-09-23 01:54:00,40.3,38.5,29.48,SSW,207,2.0,3.0,93,0.01,,,0.34,meteohub,2013-09-23 07:54:00,
2013-09-23 01:59:00,40.1,38.3,29.47,SSE,155,4.0,4.0,93,0.01,,,0.34,meteohub,2013-09-23 07:59:00,
2013-09-23 02:04:00,40.1,38.3,29.48,SE,143,3.0,6.0,93,0.01,,,0.34,meteohub,2013-09-23 08:04:00,
2013-09-23 02:09:00,40.1,38.5,29.48,SSE,167,2.0,6.0,94,0.01,,,0.34,meteohub,2013-09-23 08:09:00,
2013-09-23 02:14:00,40.1,38.5,29.48,SSE,165,4.0,5.0,94,0.01,,,0.34,meteohub,2013-09-23 08:14:00,
2013-09-23 02:19:00,40.1,38.8,29.48,South,174,2.0,5.0,95,0.01,,,0.34,meteohub,2013-09-23 08:19:00,
2013-09-23 02:25:00,39.9,38.7,29.48,South,181,4.0,5.0,95,0.01,,,0.34,meteohub,2013-09-23 08:25:00,
2013-09-23 02:30:00,39.7,38.1,29.48,SSE,161,3.0,5.0,94,0.01,,,0.34,meteohub,2013-09-23 08:30:00,
2013-09-23 02:35:00,39.7,38.1,29.49,NNW,331,2.0,7.0,94,0.01,,,0.34,meteohub,2013-09-23 08:35:00,
2013-09-23 02:40:00,39.7,38.1,29.48,SSW,204,5.0,7.0,94,0.01,,,0.34,meteohub,2013-09-23 08:40:00,
2013-09-23 02:45:00,39.7,37.9,29.49,SSE,148,0.0,7.0,93,0.00,,,0.34,meteohub,2013-09-23 08:45:00,
2013-09-23 02:50:00,39.7,37.9,29.48,SSE,152,0.0,7.0,93,0.00,,,0.34,meteohub,2013-09-23 08:50:00,
2013-09-23 02:55:00,39.7,37.6,29.49,WNW,295,3.0,7.0,92,0.00,,,0.34,meteohub,2013-09-23 08:55:00,
2013-09-23 03:00:00,40.5,36.7,29.48,NNW,347,7.0,7.0,86,0.00,,,0.34,meteohub,2013-09-23 09:00:00,
2013-09-23 03:05:00,40.8,36.3,29.48,NW,323,10.0,16.0,84,0.00,,,0.34,meteohub,2013-09-23 09:05:00,
2013-09-23 03:10:00,41.2,36.1,29.48,NNW,331,6.0,16.0,82,0.00,,,0.34,meteohub,2013-09-23 09:10:00,
2013-09-23 03:15:00,41.5,35.8,29.48,NW,326,8.0,16.0,80,0.00,,,0.34,meteohub,2013-09-23 09:15:00,
2013-09-23 03:20:00,41.9,35.8,29.48,NW,315,9.0,15.0,79,0.00,,,0.34,meteohub,2013-09-23 09:20:00,
2013-09-23 03:25:00,42.1,35.8,29.48,NW,316,7.0,20.0,78,0.00,,,0.34,meteohub,2013-09-23 09:25:00,
2013-09-23 03:30:00,42.1,35.4,29.48,NW,316,10.0,20.0,77,0.00,,,0.34,meteohub,2013-09-23 09:30:00,
2013-09-23 03:35:00,42.8,35.1,29.48,NNW,333,7.0,20.0,74,0.00,,,0.34,meteohub,2013-09-23 09:35:00,
2013-09-23 03:40:00,43.2,35.1,29.49,NNW,333,3.0,20.0,73,0.00,,,0.34,meteohub,2013-09-23 09:40:00,
2013-09-23 03:45:00,43.5,34.0,29.49,NW,321,13.0,19.0,69,0.00,,,0.34,meteohub,2013-09-23 09:45:00,
2013-09-23 03:51:00,44.2,33.6,29.48,NW,316,15.0,27.0,66,0.00,,,0.34,meteohub,2013-09-23 09:51:00,
2013-09-23 03:56:00,44.2,34.3,29.48,NNW,337,12.0,27.0,68,0.00,,,0.34,meteohub,2013-09-23 09:56:00,
2013-09-23 04:01:00,44.8,32.9,29.48,NW,323,16.0,33.0,63,0.00,,,0.34,meteohub,2013-09-23 10:01:00,
2013-09-23 04:06:00,44.2,34.0,29.49,North,354,7.0,33.0,67,0.00,,,0.34,meteohub,2013-09-23 10:06:00,
2013-09-23 04:11:00,44.1,33.8,29.49,NNE,22,14.0,33.0,67,0.00,,,0.34,meteohub,2013-09-23 10:11:00,
2013-09-23 04:16:00,44.4,32.5,29.49,NW,318,10.0,25.0,63,0.00,,,0.34,meteohub,2013-09-23 10:16:00,
2013-09-23 04:21:00,44.1,36.0,29.50,NNW,338,1.0,25.0,73,0.00,,,0.34,meteohub,2013-09-23 10:21:00,
2013-09-23 04:26:00,43.2,34.7,29.49,WSW,248,8.0,25.0,72,0.00,,,0.34,meteohub,2013-09-23 10:26:00,
2013-09-23 04:31:00,42.6,36.3,29.49,NE,49,5.0,20.0,78,0.00,,,0.34,meteohub,2013-09-23 10:31:00,
2013-09-23 04:36:00,41.5,36.1,29.49,NE,50,7.0,18.0,81,0.00,,,0.34,meteohub,2013-09-23 10:36:00,
2013-09-23 04:41:00,41.0,36.5,29.50,SSE,165,1.0,18.0,84,0.00,,,0.34,meteohub,2013-09-23 10:41:00,
2013-09-23 04:46:00,40.3,36.1,29.50,NE,46,2.0,11.0,85,0.00,,,0.34,meteohub,2013-09-23 10:46:00,
2013-09-23 04:51:00,40.3,35.8,29.50,WNW,300,0.0,8.0,84,0.00,,,0.34,meteohub,2013-09-23 10:51:00,
2013-09-23 04:56:00,39.9,35.4,29.50,WSW,245,0.0,5.0,84,0.00,,,0.34,meteohub,2013-09-23 10:56:00,
2013-09-23 05:01:00,40.1,35.1,29.51,NNW,341,1.0,5.0,82,0.00,,,0.34,meteohub,2013-09-23 11:01:00,
2013-09-23 05:06:00,40.5,35.1,29.51,WNW,283,2.0,6.0,81,0.00,,,0.34,meteohub,2013-09-23 11:06:00,
2013-09-23 05:11:00,40.6,34.7,29.51,NNW,333,3.0,8.0,79,0.00,,,0.34,meteohub,2013-09-23 11:11:00,
2013-09-23 05:17:00,40.6,34.7,29.51,NNE,19,4.0,8.0,79,0.00,,,0.34,meteohub,2013-09-23 11:17:00,
2013-09-23 05:22:00,41.0,34.3,29.52,NW,305,1.0,8.0,77,0.00,,,0.34,meteohub,2013-09-23 11:22:00,
2013-09-23 05:27:00,41.4,34.7,29.52,NNW,336,2.0,8.0,77,0.00,,,0.34,meteohub,2013-09-23 11:27:00,
2013-09-23 05:32:00,41.5,34.2,29.53,WNW,291,1.0,8.0,75,0.00,,,0.34,meteohub,2013-09-23 11:32:00,
2013-09-23 05:37:00,41.5,33.8,29.53,NW,311,0.0,7.0,74,0.00,,,0.34,meteohub,2013-09-23 11:37:00,
2013-09-23 05:42:00,41.4,34.3,29.53,West,269,3.0,7.0,76,0.00,,,0.34,meteohub,2013-09-23 11:42:00,
2013-09-23 05:47:00,41.4,34.0,29.52,East,99,4.0,7.0,75,0.00,,,0.34,meteohub,2013-09-23 11:47:00,
2013-09-23 05:52:00,42.3,33.8,29.53,ENE,72,3.0,15.0,72,0.00,,,0.34,meteohub,2013-09-23 11:52:00,
2013-09-23 05:57:00,42.1,34.3,29.54,NNE,21,6.0,15.0,74,0.00,,,0.34,meteohub,2013-09-23 11:57:00,
2013-09-23 06:02:00,41.7,34.0,29.54,North,7,3.0,15.0,74,0.00,,,0.34,meteohub,2013-09-23 12:02:00,
2013-09-23 06:07:00,42.3,34.2,29.55,WNW,298,4.0,9.0,73,0.00,,,0.34,meteohub,2013-09-23 12:07:00,
2013-09-23 06:12:00,42.4,34.3,29.55,WNW,297,9.0,17.0,73,0.00,,,0.34,meteohub,2013-09-23 12:12:00,
2013-09-23 06:17:00,43.5,34.0,29.55,NNE,28,13.0,24.0,69,0.00,,,0.34,meteohub,2013-09-23 12:17:00,
2013-09-23 06:22:00,42.8,34.0,29.55,NW,324,8.0,24.0,71,0.00,,,0.34,meteohub,2013-09-23 12:22:00,
2013-09-23 06:27:00,42.4,34.0,29.56,NW,315,10.0,24.0,72,0.00,,,0.34,meteohub,2013-09-23 12:27:00,
2013-09-23 06:32:00,41.9,34.2,29.56,NNW,331,7.0,14.0,74,0.00,,,0.34,meteohub,2013-09-23 12:32:00,
2013-09-23 06:37:00,41.5,34.2,29.57,WNW,302,5.0,14.0,75,0.00,,,0.34,meteohub,2013-09-23 12:37:00,
2013-09-23 06:42:00,41.9,33.8,29.57,NNE,25,7.0,14.0,73,0.00,,,0.34,meteohub,2013-09-23 12:42:00,
2013-09-23 06:47:00,41.9,33.8,29.57,NNW,346,8.0,16.0,73,0.00,,,0.34,meteohub,2013-09-23 12:47:00,
2013-09-23 06:52:00,42.4,33.4,29.57,NNW,342,6.0,16.0,70,0.00,,,0.34,meteohub,2013-09-23 12:52:00,
2013-09-23 06:57:00,42.4,33.6,29.57,NW,322,7.0,15.0,71,0.00,,,0.34,meteohub,2013-09-23 12:57:00,
2013-09-23 07:02:00,42.6,33.4,29.57,North,11,5.0,11.0,70,0.00,,,0.34,meteohub,2013-09-23 13:02:00,
2013-09-23 07:07:00,42.6,33.4,29.58,NW,326,14.0,14.0,70,0.00,,,0.34,meteohub,2013-09-23 13:07:00,
2013-09-23 07:12:00,44.2,32.9,29.58,NNW,333,8.0,17.0,64,0.00,,,0.34,meteohub,2013-09-23 13:12:00,
2013-09-23 07:17:00,43.5,33.3,29.59,NNW,337,7.0,17.0,67,0.00,,,0.34,meteohub,2013-09-23 13:17:00,
2013-09-23 07:22:00,43.5,33.6,29.59,NNE,19,4.0,17.0,68,0.00,,,0.34,meteohub,2013-09-23 13:22:00,
2013-09-23 07:27:00,43.2,34.0,29.59,NE,39,6.0,14.0,70,0.00,,,0.34,meteohub,2013-09-23 13:27:00,
2013-09-23 07:32:00,43.2,33.6,29.60,NW,325,5.0,13.0,69,0.00,,,0.34,meteohub,2013-09-23 13:32:00,
2013-09-23 07:37:00,43.3,33.8,29.60,NNE,18,6.0,13.0,69,0.00,,,0.34,meteohub,2013-09-23 13:37:00,
2013-09-23 07:42:00,43.3,33.8,29.61,NNW,335,6.0,13.0,69,0.00,,,0.34,meteohub,2013-09-23 13:42:00,
2013-09-23 07:47:00,43.5,34.3,29.61,NW,322,7.0,14.0,70,0.00,,,0.34,meteohub,2013-09-23 13:47:00,
2013-09-23 07:52:00,43.5,34.3,29.61,NNW,338,8.0,14.0,70,0.00,,,0.34,meteohub,2013-09-23 13:52:00,
2013-09-23 07:57:00,43.3,34.2,29.62,North,354,10.0,14.0,70,0.00,,,0.34,meteohub,2013-09-23 13:57:00,
2013-09-23 08:02:00,43.5,34.3,29.62,NNW,330,7.0,14.0,70,0.00,,,0.34,meteohub,2013-09-23 14:02:00,
2013-09-23 08:07:00,43.9,35.1,29.62,NNE,30,9.0,14.0,71,0.00,,,0.34,meteohub,2013-09-23 14:07:00,
2013-09-23 08:12:00,44.1,35.2,29.62,NW,316,8.0,15.0,71,0.00,,,0.34,meteohub,2013-09-23 14:12:00,
2013-09-23 08:17:00,44.2,35.4,29.62,NNW,343,6.0,15.0,71,0.00,,,0.34,meteohub,2013-09-23 14:17:00,
2013-09-23 08:22:00,44.2,35.4,29.63,NNW,333,9.0,15.0,71,0.00,,,0.34,meteohub,2013-09-23 14:22:00,
2013-09-23 08:27:00,44.2,36.1,29.63,North,1,14.0,14.0,73,0.00,,,0.34,meteohub,2013-09-23 14:27:00,
2013-09-23 08:32:00,44.4,35.6,29.63,NNW,340,4.0,14.0,71,0.00,,,0.34,meteohub,2013-09-23 14:32:00,
2013-09-23 08:37:00,44.6,36.1,29.63,North,5,7.0,14.0,72,0.00,,,0.34,meteohub,2013-09-23 14:37:00,
2013-09-23 08:42:00,45.0,36.5,29.64,NW,318,4.0,14.0,72,0.00,,,0.34,meteohub,2013-09-23 14:42:00,
2013-09-23 08:47:00,45.3,35.8,29.65,NNW,328,6.0,15.0,69,0.00,,,0.34,meteohub,2013-09-23 14:47:00,
2013-09-23 08:52:00,45.7,35.1,29.65,NNW,333,10.0,15.0,66,0.00,,,0.34,meteohub,2013-09-23 14:52:00,
2013-09-23 08:57:00,45.7,35.1,29.65,NNW,333,4.0,15.0,66,0.00,,,0.34,meteohub,2013-09-23 14:57:00,
2013-09-23 09:02:00,46.0,36.1,29.66,WNW,291,3.0,15.0,68,0.00,,,0.34,meteohub,2013-09-23 15:02:00,
2013-09-23 09:07:00,46.6,33.8,29.65,NW,315,7.0,15.0,61,0.00,,,0.34,meteohub,2013-09-23 15:07:00,
2013-09-23 09:12:00,47.1,31.3,29.65,NNW,330,17.0,17.0,54,0.00,,,0.34,meteohub,2013-09-23 15:12:00,
2013-09-23 09:17:00,47.5,30.2,29.65,WNW,289,12.0,18.0,51,0.00,,,0.34,meteohub,2013-09-23 15:17:00,
2013-09-23 09:22:00,47.3,30.0,29.65,WNW,295,11.0,20.0,51,0.00,,,0.34,meteohub,2013-09-23 15:22:00,
2013-09-23 09:27:00,47.3,29.1,29.65,NW,311,14.0,20.0,49,0.00,,,0.34,meteohub,2013-09-23 15:27:00,
2013-09-23 09:32:00,47.5,28.8,29.66,NW,318,15.0,25.0,48,0.00,,,0.34,meteohub,2013-09-23 15:32:00,
2013-09-23 09:37:00,47.7,28.9,29.66,North,349,18.0,25.0,48,0.00,,,0.34,meteohub,2013-09-23 15:37:00,
2013-09-23 09:42:00,48.4,29.7,29.66,NW,318,26.0,26.0,48,0.00,,,0.34,meteohub,2013-09-23 15:42:00,
2013-09-23 09:47:00,48.6,30.2,29.68,NW,325,12.0,31.0,49,0.00,,,0.34,meteohub,2013-09-23 15:47:00,
2013-09-23 09:52:00,48.6,31.8,29.68,NNW,330,20.0,31.0,52,0.00,,,0.34,meteohub,2013-09-23 15:52:00,
2013-09-23 09:57:00,48.7,30.9,29.68,NW,307,14.0,31.0,50,0.00,,,0.34,meteohub,2013-09-23 15:57:00,
2013-09-23 10:02:00,48.9,30.0,29.69,NW,322,14.0,27.0,48,0.00,,,0.34,meteohub,2013-09-23 16:02:00,
2013-09-23 10:07:00,48.9,30.0,29.69,NW,326,16.0,26.0,48,0.00,,,0.34,meteohub,2013-09-23 16:07:00,
2013-09-23 10:12:00,48.7,29.8,29.69,North,352,27.0,28.0,48,0.00,,,0.34,meteohub,2013-09-23 16:12:00,
2013-09-23 10:17:00,49.1,30.2,29.70,NW,307,15.0,35.0,48,0.00,,,0.34,meteohub,2013-09-23 16:17:00,
2013-09-23 10:22:00,49.5,27.3,29.70,West,280,18.0,35.0,42,0.00,,,0.34,meteohub,2013-09-23 16:22:00,
2013-09-23 10:27:00,49.6,27.5,29.71,WNW,294,11.0,31.0,42,0.00,,,0.34,meteohub,2013-09-23 16:27:00,
2013-09-23 10:32:00,49.5,27.3,29.71,NW,307,18.0,31.0,42,0.00,,,0.34,meteohub,2013-09-23 16:32:00,
2013-09-23 10:37:00,49.5,27.3,29.71,NW,305,19.0,30.0,42,0.00,,,0.34,meteohub,2013-09-23 16:37:00,
2013-09-23 10:42:00,49.3,26.1,29.71,NW,305,25.0,27.0,40,0.00,,,0.34,meteohub,2013-09-23 16:42:00,
2013-09-23 10:47:00,48.9,25.0,29.72,NW,309,10.0,28.0,39,0.00,,,0.34,meteohub,2013-09-23 16:47:00,
2013-09-23 10:52:00,49.1,23.9,29.71,NW,314,9.0,29.0,37,0.00,,,0.34,meteohub,2013-09-23 16:52:00,
2013-09-23 10:57:00,49.3,25.3,29.73,NNW,328,13.0,32.0,39,0.00,,,0.34,meteohub,2013-09-23 16:57:00,
2013-09-23 11:02:00,49.1,25.2,29.73,NNW,338,16.0,32.0,39,0.00,,,0.34,meteohub,2013-09-23 17:02:00,
2013-09-23 11:07:00,48.9,25.0,29.73,West,281,20.0,32.0,39,0.00,,,0.34,meteohub,2013-09-23 17:07:00,
2013-09-23 11:12:00,48.9,25.7,29.74,NNW,340,15.0,27.0,40,0.00,,,0.34,meteohub,2013-09-23 17:12:00,
2013-09-23 11:17:00,48.9,25.7,29.74,WNW,283,15.0,37.0,40,0.00,,,0.34,meteohub,2013-09-23 17:17:00,
2013-09-23 11:22:00,49.1,26.4,29.75,NW,314,12.0,37.0,41,0.00,,,0.34,meteohub,2013-09-23 17:22:00,
2013-09-23 11:27:00,49.1,24.6,29.75,NNW,335,20.0,37.0,38,0.00,,,0.34,meteohub,2013-09-23 17:27:00,
2013-09-23 11:32:00,48.9,25.7,29.76,NW,325,9.0,28.0,40,0.00,,,0.34,meteohub,2013-09-23 17:32:00,
2013-09-23 11:37:00,49.1,27.5,29.76,NW,312,9.0,28.0,43,0.00,,,0.34,meteohub,2013-09-23 17:37:00,
2013-09-23 11:42:00,49.3,26.1,29.76,WNW,290,10.0,28.0,40,0.00,,,0.34,meteohub,2013-09-23 17:42:00,
2013-09-23 11:47:00,49.6,26.2,29.76,North,349,14.0,26.0,40,0.00,,,0.34,meteohub,2013-09-23 17:47:00,
2013-09-23 11:52:00,49.8,27.7,29.77,WNW,302,15.0,24.0,42,0.00,,,0.34,meteohub,2013-09-23 17:52:00,
2013-09-23 11:57:00,49.8,26.4,29.77,NNW,330,18.0,25.0,40,0.00,,,0.34,meteohub,2013-09-23 17:57:00,
2013-09-23 12:02:00,49.8,27.1,29.77,NW,323,10.0,26.0,41,0.00,,,0.34,meteohub,2013-09-23 18:02:00,
2013-09-23 12:07:00,50.0,28.4,29.78,NW,315,10.0,26.0,43,0.00,,,0.34,meteohub,2013-09-23 18:07:00,
2013-09-23 12:12:00,50.4,27.5,29.78,NW,316,11.0,26.0,41,0.00,,,0.34,meteohub,2013-09-23 18:12:00,
2013-09-23 12:17:00,50.2,28.0,29.78,WNW,302,13.0,28.0,42,0.00,,,0.34,meteohub,2013-09-23 18:17:00,
2013-09-23 12:22:00,50.5,28.2,29.79,NW,322,9.0,28.0,42,0.00,,,0.34,meteohub,2013-09-23 18:22:00,
2013-09-23 12:27:00,50.2,28.0,29.78,NW,317,11.0,28.0,42,0.00,,,0.34,meteohub,2013-09-23 18:27:00,
2013-09-23 12:32:00,50.4,27.5,29.78,NW,308,12.0,26.0,41,0.00,,,0.34,meteohub,2013-09-23 18:32:00,
2013-09-23 12:37:00,50.4,25.7,29.79,NW,321,23.0,26.0,38,0.00,,,0.34,meteohub,2013-09-23 18:37:00,
2013-09-23 12:42:00,50.4,25.7,29.79,NW,307,7.0,26.0,38,0.00,,,0.34,meteohub,2013-09-23 18:42:00,
2013-09-23 12:47:00,50.9,24.3,29.79,NW,321,15.0,26.0,35,0.00,,,0.34,meteohub,2013-09-23 18:47:00,
2013-09-23 12:52:00,50.7,25.3,29.79,NW,315,28.0,28.0,37,0.00,,,0.34,meteohub,2013-09-23 18:52:00,
2013-09-23 12:57:00,51.1,26.4,29.80,SW,214,12.0,31.0,38,0.00,,,0.34,meteohub,2013-09-23 18:57:00,
2013-09-23 13:02:00,51.3,25.9,29.80,NNW,336,11.0,31.0,37,0.00,,,0.34,meteohub,2013-09-23 19:02:00,
2013-09-23 13:07:00,51.3,26.6,29.80,WNW,302,21.0,30.0,38,0.00,,,0.34,meteohub,2013-09-23 19:07:00,
2013-09-23 13:12:00,51.4,26.1,29.80,NW,312,14.0,29.0,37,0.00,,,0.34,meteohub,2013-09-23 19:12:00,
2013-09-23 13:17:00,51.4,25.3,29.80,West,281,8.0,28.0,36,0.00,,,0.34,meteohub,2013-09-23 19:17:00,
2013-09-23 13:22:00,51.4,26.6,29.80,NW,320,20.0,28.0,38,0.00,,,0.34,meteohub,2013-09-23 19:22:00,
2013-09-23 13:27:00,51.6,27.5,29.81,NNW,344,14.0,28.0,39,0.00,,,0.34,meteohub,2013-09-23 19:27:00,
2013-09-23 13:32:00,51.6,25.5,29.81,NNW,333,11.0,27.0,36,0.00,,,0.34,meteohub,2013-09-23 19:32:00,
2013-09-23 13:37:00,51.4,26.1,29.81,NW,310,12.0,27.0,37,0.00,,,0.34,meteohub,2013-09-23 19:37:00,
2013-09-23 13:42:00,51.6,24.8,29.81,WNW,295,7.0,25.0,35,0.00,,,0.34,meteohub,2013-09-23 19:42:00,
2013-09-23 13:47:00,52.2,26.1,29.81,NNW,338,8.0,25.0,36,0.00,,,0.34,meteohub,2013-09-23 19:47:00,
2013-09-23 13:52:00,52.3,25.5,29.81,NW,317,20.0,20.0,35,0.00,,,0.34,meteohub,2013-09-23 19:52:00,
2013-09-23 13:57:00,52.7,25.9,29.82,North,352,12.0,23.0,35,0.00,,,0.34,meteohub,2013-09-23 19:57:00,
2013-09-23 14:02:00,52.3,25.5,29.82,NW,326,11.0,28.0,35,0.00,,,0.34,meteohub,2013-09-23 20:02:00,
2013-09-23 14:07:00,52.9,25.3,29.82,NW,323,8.0,28.0,34,0.00,,,0.34,meteohub,2013-09-23 20:07:00,
2013-09-23 14:12:00,53.1,25.3,29.82,NNW,329,12.0,28.0,34,0.00,,,0.34,meteohub,2013-09-23 20:12:00,
2013-09-23 14:17:00,52.7,25.2,29.83,West,274,7.0,23.0,34,0.00,,,0.34,meteohub,2013-09-23 20:17:00,
2013-09-23 14:22:00,53.2,25.5,29.83,NW,310,8.0,20.0,34,0.00,,,0.34,meteohub,2013-09-23 20:22:00,
2013-09-23 14:27:00,53.2,26.2,29.84,West,279,6.0,19.0,35,0.00,,,0.34,meteohub,2013-09-23 20:27:00,
2013-09-23 14:32:00,53.1,25.3,29.84,WNW,302,6.0,18.0,34,0.00,,,0.34,meteohub,2013-09-23 20:32:00,
2013-09-23 14:37:00,53.1,24.8,29.84,NW,310,18.0,18.0,33,0.00,,,0.34,meteohub,2013-09-23 20:37:00,
2013-09-23 14:42:00,53.2,24.8,29.83,NNW,332,14.0,18.0,33,0.00,,,0.34,meteohub,2013-09-23 20:42:00,
2013-09-23 14:47:00,53.2,24.8,29.83,NNW,332,18.0,22.0,33,0.00,,,0.34,meteohub,2013-09-23 20:47:00,
2013-09-23 14:52:00,53.4,25.0,29.83,NW,321,16.0,24.0,33,0.00,,,0.34,meteohub,2013-09-23 20:52:00,
2013-09-23 14:57:00,53.4,27.1,29.83,NNW,340,16.0,24.0,36,0.00,,,0.34,meteohub,2013-09-23 20:57:00,
2013-09-23 15:02:00,53.2,24.1,29.84,NW,305,9.0,24.0,32,0.00,,,0.34,meteohub,2013-09-23 21:02:00,
2013-09-23 15:07:00,53.1,23.9,29.84,NNW,338,10.0,21.0,32,0.00,,,0.34,meteohub,2013-09-23 21:07:00,
2013-09-23 15:12:00,53.1,26.1,29.84,North,8,12.0,21.0,35,0.00,,,0.34,meteohub,2013-09-23 21:12:00,
2013-09-23 15:17:00,53.8,26.1,29.85,NW,319,10.0,21.0,34,0.00,,,0.34,meteohub,2013-09-23 21:17:00,
2013-09-23 15:22:00,53.8,26.1,29.85,WNW,297,8.0,21.0,34,0.00,,,0.34,meteohub,2013-09-23 21:22:00,
2013-09-23 15:27:00,53.6,25.2,29.85,NNW,347,11.0,20.0,33,0.00,,,0.34,meteohub,2013-09-23 21:27:00,
2013-09-23 15:32:00,53.6,25.2,29.85,WNW,300,11.0,22.0,33,0.00,,,0.34,meteohub,2013-09-23 21:32:00,
2013-09-23 15:37:00,53.6,26.6,29.86,NW,321,13.0,22.0,35,0.00,,,0.34,meteohub,2013-09-23 21:37:00,
2013-09-23 15:42:00,53.4,24.3,29.86,NW,316,8.0,22.0,32,0.00,,,0.34,meteohub,2013-09-23 21:42:00,
2013-09-23 15:47:00,53.4,24.3,29.86,WNW,287,14.0,20.0,32,0.00,,,0.34,meteohub,2013-09-23 21:47:00,
2013-09-23 15:52:00,53.6,26.6,29.86,NW,325,13.0,17.0,35,0.00,,,0.34,meteohub,2013-09-23 21:52:00,
2013-09-23 15:57:00,53.4,26.4,29.87,NNE,13,12.0,21.0,35,0.00,,,0.34,meteohub,2013-09-23 21:57:00,
2013-09-23 16:02:00,53.4,23.5,29.87,NW,319,15.0,21.0,31,0.00,,,0.34,meteohub,2013-09-23 22:02:00,
2013-09-23 16:07:00,53.6,25.9,29.87,NNW,341,11.0,22.0,34,0.00,,,0.34,meteohub,2013-09-23 22:07:00,
2013-09-23 16:12:00,53.8,24.6,29.87,WNW,291,9.0,22.0,32,0.00,,,0.34,meteohub,2013-09-23 22:12:00,
2013-09-23 16:17:00,53.8,23.9,29.87,West,281,11.0,22.0,31,0.00,,,0.34,meteohub,2013-09-23 22:17:00,
2013-09-23 16:22:00,54.0,24.1,29.87,NNW,339,14.0,16.0,31,0.00,,,0.34,meteohub,2013-09-23 22:22:00,
2013-09-23 16:27:00,53.8,24.6,29.88,NNW,330,10.0,19.0,32,0.00,,,0.34,meteohub,2013-09-23 22:27:00,
2013-09-23 16:32:00,54.0,25.5,29.88,WNW,283,5.0,19.0,33,0.00,,,0.34,meteohub,2013-09-23 22:32:00,
2013-09-23 16:37:00,54.1,25.0,29.88,NNW,332,3.0,19.0,32,0.00,,,0.34,meteohub,2013-09-23 22:37:00,
2013-09-23 16:42:00,54.3,23.5,29.88,NNW,343,12.0,17.0,30,0.00,,,0.34,meteohub,2013-09-23 22:42:00,
2013-09-23 16:47:00,54.3,23.5,29.89,WNW,297,10.0,14.0,30,0.00,,,0.34,meteohub,2013-09-23 22:47:00,
2013-09-23 16:52:00,54.0,24.1,29.89,NW,326,11.0,17.0,31,0.00,,,0.34,meteohub,2013-09-23 22:52:00,
2013-09-23 16:57:00,53.6,23.7,29.89,NNW,330,5.0,17.0,31,0.00,,,0.34,meteohub,2013-09-23 22:57:00,
2013-09-23 17:02:00,53.8,25.3,29.90,NNE,18,6.0,17.0,33,0.00,,,0.34,meteohub,2013-09-23 23:02:00,
2013-09-23 17:07:00,54.1,24.1,29.90,North,354,9.0,17.0,31,0.00,,,0.34,meteohub,2013-09-23 23:07:00,
2013-09-23 17:12:00,54.0,24.1,29.90,NNW,340,6.0,17.0,31,0.00,,,0.34,meteohub,2013-09-23 23:12:00,
2013-09-23 17:17:00,54.1,25.0,29.90,West,278,7.0,15.0,32,0.00,,,0.34,meteohub,2013-09-23 23:17:00,
2013-09-23 17:22:00,54.0,24.1,29.91,WNW,296,5.0,15.0,31,0.00,,,0.34,meteohub,2013-09-23 23:22:00,
2013-09-23 17:27:00,54.0,24.1,29.91,West,260,4.0,15.0,31,0.00,,,0.34,meteohub,2013-09-23 23:27:00,
2013-09-23 17:32:00,54.1,25.0,29.91,WNW,288,5.0,12.0,32,0.00,,,0.34,meteohub,2013-09-23 23:32:00,
2013-09-23 17:37:00,53.8,23.9,29.92,NNW,338,7.0,11.0,31,0.00,,,0.34,meteohub,2013-09-23 23:37:00,
2013-09-23 17:43:00,53.8,23.9,29.92,NNW,330,2.0,11.0,31,0.00,,,0.34,meteohub,2013-09-23 23:43:00,
2013-09-23 17:48:00,53.8,23.0,29.93,NNW,334,4.0,11.0,30,0.00,,,0.34,meteohub,2013-09-23 23:48:00,
2013-09-23 17:53:00,53.6,23.7,29.93,West,270,3.0,11.0,31,0.00,,,0.34,meteohub,2013-09-23 23:53:00,
2013-09-23 17:58:00,53.4,24.3,29.93,NW,318,5.0,11.0,32,0.00,,,0.34,meteohub,2013-09-23 23:58:00,
2013-09-23 18:03:00,53.2,24.1,29.94,NNW,329,3.0,12.0,32,0.00,,,0.34,meteohub,2013-09-24 00:03:00,
2013-09-23 18:08:00,53.1,23.9,29.94,NW,326,7.0,12.0,32,0.00,,,0.00,meteohub,2013-09-24 00:08:00,
2013-09-23 18:13:00,52.9,24.6,29.94,NW,320,4.0,12.0,33,0.00,,,0.00,meteohub,2013-09-24 00:13:00,
2013-09-23 18:19:00,52.5,24.3,29.95,NW,314,5.0,12.0,33,0.00,,,0.00,meteohub,2013-09-24 00:19:00,
2013-09-23 18:24:00,51.4,24.1,29.95,NNW,329,4.0,12.0,34,0.00,,,0.00,meteohub,2013-09-24 00:24:00,
2013-09-23 18:29:00,50.5,25.2,29.95,NNW,333,4.0,12.0,37,0.00,,,0.00,meteohub,2013-09-24 00:29:00,
2013-09-23 18:34:00,50.2,24.3,29.95,NW,307,3.0,10.0,36,0.00,,,0.00,meteohub,2013-09-24 00:34:00,
2013-09-23 18:39:00,50.2,24.3,29.96,NW,320,4.0,10.0,36,0.00,,,0.00,meteohub,2013-09-24 00:39:00,
2013-09-23 18:44:00,49.6,23.7,29.96,NW,322,6.0,8.0,36,0.00,,,0.00,meteohub,2013-09-24 00:44:00,
2013-09-23 18:49:00,49.6,23.7,29.96,NW,316,4.0,9.0,36,0.00,,,0.00,meteohub,2013-09-24 00:49:00,
2013-09-23 18:55:00,49.5,24.3,29.96,NW,326,3.0,12.0,37,0.00,,,0.00,meteohub,2013-09-24 00:55:00,
2013-09-23 19:00:00,48.9,24.4,29.96,NNW,330,6.0,12.0,38,0.00,,,0.00,meteohub,2013-09-24 01:00:00,
2013-09-23 19:05:00,48.7,24.3,29.96,NNW,329,5.0,8.0,38,0.00,,,0.00,meteohub,2013-09-24 01:05:00,
2013-09-23 19:10:00,48.6,24.8,29.96,NNW,336,6.0,12.0,39,0.00,,,0.00,meteohub,2013-09-24 01:10:00,
2013-09-23 19:15:00,48.0,24.3,29.96,NW,311,4.0,12.0,39,0.00,,,0.00,meteohub,2013-09-24 01:15:00,
2013-09-23 19:20:00,48.6,23.5,29.97,NW,326,8.0,9.0,37,0.00,,,0.00,meteohub,2013-09-24 01:20:00,
2013-09-23 19:25:00,48.7,23.5,29.97,NNW,335,11.0,12.0,37,0.00,,,0.00,meteohub,2013-09-24 01:25:00,
2013-09-23 19:30:00,48.9,24.4,29.97,NNW,336,7.0,14.0,38,0.00,,,0.00,meteohub,2013-09-24 01:30:00,
2013-09-23 19:35:00,48.6,24.8,29.97,NNW,331,8.0,14.0,39,0.00,,,0.00,meteohub,2013-09-24 01:35:00,
2013-09-23 19:40:00,48.2,24.4,29.98,NNW,342,6.0,10.0,39,0.00,,,0.00,meteohub,2013-09-24 01:40:00,
2013-09-23 19:45:00,47.7,25.2,29.99,NW,325,5.0,12.0,41,0.00,,,0.00,meteohub,2013-09-24 01:45:00,
2013-09-23 19:50:00,47.7,25.2,29.99,NW,323,6.0,12.0,41,0.00,,,0.00,meteohub,2013-09-24 01:50:00,
2013-09-23 19:55:00,47.8,24.6,29.99,NNW,330,6.0,9.0,40,0.00,,,0.00,meteohub,2013-09-24 01:55:00,
2013-09-23 20:00:00,47.3,25.3,29.99,NW,323,4.0,8.0,42,0.00,,,0.00,meteohub,2013-09-24 02:00:00,
2013-09-23 20:05:00,46.9,25.0,29.99,NW,323,4.0,7.0,42,0.00,,,0.00,meteohub,2013-09-24 02:05:00,
2013-09-23 20:11:00,46.9,26.2,29.99,NNW,337,9.0,14.0,44,0.00,,,0.00,meteohub,2013-09-24 02:11:00,
2013-09-23 20:16:00,46.9,26.2,30.00,NNW,334,6.0,15.0,44,0.00,,,0.00,meteohub,2013-09-24 02:16:00,
2013-09-23 20:21:00,46.9,26.2,30.00,NNW,342,6.0,15.0,44,0.00,,,0.00,meteohub,2013-09-24 02:21:00,
2013-09-23 20:26:00,46.9,25.5,30.00,NW,321,6.0,12.0,43,0.00,,,0.00,meteohub,2013-09-24 02:26:00,
2013-09-23 20:31:00,46.6,26.4,30.01,NNW,332,5.0,12.0,45,0.00,,,0.00,meteohub,2013-09-24 02:31:00,
2013-09-23 20:36:00,45.9,26.2,30.01,NNW,329,3.0,12.0,46,0.00,,,0.00,meteohub,2013-09-24 02:36:00,
2013-09-23 20:41:00,45.3,27.3,30.02,NW,326,3.0,9.0,49,0.00,,,0.00,meteohub,2013-09-24 02:41:00,
2013-09-23 20:46:00,44.8,27.3,30.02,NNW,327,5.0,9.0,50,0.00,,,0.00,meteohub,2013-09-24 02:46:00,
2013-09-23 20:51:00,44.2,27.3,30.02,WNW,300,1.0,8.0,51,0.00,,,0.00,meteohub,2013-09-24 02:51:00,
2013-09-23 20:56:00,44.2,26.8,30.02,NW,307,2.0,8.0,50,0.00,,,0.00,meteohub,2013-09-24 02:56:00,
2013-09-23 21:01:00,44.8,26.2,30.02,NW,314,1.0,8.0,48,0.00,,,0.00,meteohub,2013-09-24 03:01:00,
2013-09-23 21:06:00,45.3,26.2,30.03,NNW,327,1.0,7.0,47,0.00,,,0.00,meteohub,2013-09-24 03:06:00,
2013-09-23 21:11:00,44.6,27.1,30.03,NNE,13,2.0,5.0,50,0.00,,,0.00,meteohub,2013-09-24 03:11:00,
2013-09-23 21:17:00,44.1,27.1,30.04,WSW,255,2.0,4.0,51,0.00,,,0.00,meteohub,2013-09-24 03:17:00,
2013-09-23 21:22:00,44.1,26.6,30.04,South,173,2.0,4.0,50,0.00,,,0.00,meteohub,2013-09-24 03:22:00,
2013-09-23 21:27:00,43.5,26.6,30.04,SSW,203,2.0,5.0,51,0.00,,,0.00,meteohub,2013-09-24 03:27:00,
2013-09-23 21:32:00,43.2,26.2,30.04,SSW,208,1.0,6.0,51,0.00,,,0.00,meteohub,2013-09-24 03:32:00,
2013-09-23 21:37:00,42.6,26.6,30.04,ESE,114,0.0,6.0,53,0.00,,,0.00,meteohub,2013-09-24 03:37:00,
2013-09-23 21:42:00,42.1,26.2,30.04,WSW,250,2.0,5.0,53,0.00,,,0.00,meteohub,2013-09-24 03:42:00,
2013-09-23 21:47:00,42.4,26.1,30.05,NW,312,0.0,3.0,52,0.00,,,0.00,meteohub,2013-09-24 03:47:00,
2013-09-23 21:52:00,42.8,26.4,30.05,WNW,293,0.0,3.0,52,0.00,,,0.00,meteohub,2013-09-24 03:52:00,
2013-09-23 21:57:00,42.8,26.4,30.05,WNW,290,1.0,3.0,52,0.00,,,0.00,meteohub,2013-09-24 03:57:00,
2013-09-23 22:02:00,43.3,26.4,30.05,WNW,291,1.0,4.0,51,0.00,,,0.00,meteohub,2013-09-24 04:02:00,
2013-09-23 22:03:00,43.5,26.1,30.05,WNW,295,0.0,4.0,50,0.00,,,0.00,meteohub,2013-09-24 04:03:00,
2013-09-23 22:08:00,43.5,26.6,30.05,NE,46,1.0,4.0,51,0.00,,,0.00,meteohub,2013-09-24 04:08:00,
2013-09-23 22:10:00,43.3,26.4,30.05,NNW,338,0.0,3.0,51,0.00,,,0.00,meteohub,2013-09-24 04:10:00,
2013-09-23 22:15:00,42.8,25.9,30.05,WNW,295,0.0,2.0,51,0.00,,,0.00,meteohub,2013-09-24 04:15:00,
2013-09-23 22:20:00,43.0,27.0,30.05,North,8,1.0,2.0,53,0.00,,,0.00,meteohub,2013-09-24 04:20:00,
2013-09-23 22:26:00,43.0,27.5,30.06,ESE,105,1.0,2.0,54,0.00,,,0.00,meteohub,2013-09-24 04:26:00,
2013-09-23 22:31:00,43.2,28.0,30.06,NNE,22,1.0,2.0,55,0.00,,,0.00,meteohub,2013-09-24 04:31:00,
2013-09-23 22:36:00,43.2,28.0,30.06,North,352,3.0,5.0,55,0.00,,,0.00,meteohub,2013-09-24 04:36:00,
2013-09-23 22:41:00,43.0,27.9,30.06,North,5,1.0,5.0,55,0.00,,,0.00,meteohub,2013-09-24 04:41:00,
2013-09-23 22:46:00,42.8,28.2,30.06,NNW,345,1.0,5.0,56,0.00,,,0.00,meteohub,2013-09-24 04:46:00,
2013-09-23 22:51:00,42.6,28.0,30.06,North,355,3.0,5.0,56,0.00,,,0.00,meteohub,2013-09-24 04:51:00,
2013-09-23 22:56:00,42.4,28.2,30.06,NNW,328,3.0,4.0,57,0.00,,,0.00,meteohub,2013-09-24 04:56:00,
2013-09-23 23:01:00,42.4,28.2,30.06,NW,326,3.0,4.0,57,0.00,,,0.00,meteohub,2013-09-24 05:01:00,
2013-09-23 23:06:00,42.6,28.4,30.06,NNW,336,2.0,4.0,57,0.00,,,0.00,meteohub,2013-09-24 05:06:00,
2013-09-23 23:11:00,42.4,28.2,30.06,North,4,3.0,4.0,57,0.00,,,0.00,meteohub,2013-09-24 05:11:00,
2013-09-23 23:16:00,42.3,28.0,30.06,NW,323,3.0,4.0,57,0.00,,,0.00,meteohub,2013-09-24 05:16:00,
2013-09-23 23:21:00,42.3,28.6,30.07,NNW,335,1.0,4.0,58,0.00,,,0.00,meteohub,2013-09-24 05:21:00,
2013-09-23 23:26:00,42.3,28.0,30.07,NNW,336,3.0,4.0,57,0.00,,,0.00,meteohub,2013-09-24 05:26:00,
2013-09-23 23:32:00,42.3,28.0,30.07,North,6,2.0,4.0,57,0.00,,,0.00,meteohub,2013-09-24 05:32:00,
2013-09-23 23:37:00,41.9,28.2,30.06,NNW,333,2.0,4.0,58,0.00,,,0.00,meteohub,2013-09-24 05:37:00,
2013-09-23 23:42:00,41.5,28.2,30.07,NNW,331,1.0,5.0,59,0.00,,,0.00,meteohub,2013-09-24 05:42:00,
2013-09-23 23:47:00,41.4,28.6,30.07,NNW,335,2.0,5.0,60,0.00,,,0.00,meteohub,2013-09-24 05:47:00,
2013-09-23 23:52:00,41.4,28.0,30.07,NNW,337,2.0,5.0,59,0.00,,,0.00,meteohub,2013-09-24 05:52:00,
2013-09-23 23:57:00,41.5,27.9,30.07,NNW,344,2.0,4.0,58,0.00,,,0.00,meteohub,2013-09-24 05:57:00,